Time;durP1;ratioP1;P1;durP2;ratioP2;P2;SDS_P1;SDS_P2;PMS_P1;PMS_P2;Temp;Humidity;BMP_temperature;BMP_pressure;BME280_temperature;BME280_humidity;BME280_pressure;Samples;Min_cycle;Max_cycle;Signal;HPM_P1;HPM_P2
2024/01/31 00:00:27;;;;;;;;;;;21.90;38.80;;;;;;3035992;19;5236;-78
2024/01/31 00:01:28;;;;;;;;;;;21.60;38.70;;;;;;3057110;19;6243;-77
2024/01/31 00:02:29;;;;;;;;;;;21.60;38.70;;;;;;3036715;19;5323;-79
2024/01/31 00:03:29;;;;;;;;;;;21.80;38.90;;;;;;3057882;19;5414;-78
2024/01/31 00:04:30;;;;;;;;;;;21.60;38.70;;;;;;3058030;19;4775;-78
2024/01/31 00:05:30;;;;;;;;;;;21.60;38.70;;;;;;3034885;19;4758;-71
2024/01/31 00:06:31;;;;;;;;;;;21.60;38.80;;;;;;3055868;19;6663;-70
2024/01/31 00:07:32;;;;;;;;;;;21.60;38.70;;;;;;3056320;19;5003;-72
2024/01/31 00:08:32;;;;;;;;;;;21.60;38.80;;;;;;3034846;19;5428;-70
2024/01/31 00:09:33;;;;;;;;;;;21.00;38.50;;;;;;3055674;19;5449;-70
2024/01/31 00:10:33;;;;;;;;;;;21.90;38.90;;;;;;3034095;19;5384;-69
2024/01/31 00:11:34;;;;;;;;;;;22.40;39.10;;;;;;3055586;19;6445;-70
2024/01/31 00:12:35;;;;;;;;;;;21.50;38.70;;;;;;3054605;19;6717;-70
2024/01/31 00:13:36;;;;;;;;;;;21.60;38.90;;;;;;3033221;19;5785;-70
2024/01/31 00:14:37;;;;;;;;;;;22.30;39.30;;;;;;3054988;19;5436;-71
2024/01/31 00:15:37;;;;;;;;;;;21.50;38.80;;;;;;3055350;19;5697;-70
2024/01/31 00:16:38;;;;;;;;;;;21.50;38.80;;;;;;3033375;19;5281;-69
2024/01/31 00:17:39;;;;;;;;;;;21.40;38.80;;;;;;3053641;19;5456;-70
2024/01/31 00:18:40;;;;;;;;;;;21.50;38.90;;;;;;3032291;19;5326;-70
2024/01/31 00:19:41;;;;;;;;;;;22.00;39.10;;;;;;3053691;19;4664;-69
2024/01/31 00:20:41;;;;;;;;;;;21.50;38.80;;;;;;3053751;19;5375;-70
2024/01/31 00:21:42;;;;;;;;;;;21.50;38.80;;;;;;3031837;19;4835;-72
2024/01/31 00:22:42;;;;;;;;;;;21.50;38.90;;;;;;3053997;19;5067;-71
2024/01/31 00:23:43;;;;;;;;;;;21.50;38.90;;;;;;3053005;19;4797;-70
2024/01/31 00:24:44;;;;;;;;;;;20.80;38.50;;;;;;3031391;19;10927;-69
2024/01/31 00:25:45;;;;;;;;;;;21.50;39.60;;;;;;3053951;19;4546;-70
2024/01/31 00:26:46;;;;;;;;;;;21.40;38.90;;;;;;3031663;19;5097;-70
2024/01/31 00:27:46;;;;;;;;;;;21.40;38.80;;;;;;3052725;19;5159;-71
2024/01/31 00:28:47;;;;;;;;;;;21.40;38.90;;;;;;3053802;19;5275;-69
2024/01/31 00:29:48;;;;;;;;;;;21.90;39.10;;;;;;3031154;19;6197;-70
2024/01/31 00:30:48;;;;;;;;;;;21.50;39.00;;;;;;3052266;19;5346;-70
2024/01/31 00:31:49;;;;;;;;;;;21.20;38.80;;;;;;3031452;19;4646;-70
2024/01/31 00:32:49;;;;;;;;;;;21.40;38.90;;;;;;3052542;19;5266;-69
2024/01/31 00:33:50;;;;;;;;;;;21.40;39.00;;;;;;3052090;19;5396;-70
2024/01/31 00:34:51;;;;;;;;;;;21.40;39.00;;;;;;3029542;19;5385;-70
2024/01/31 00:35:52;;;;;;;;;;;21.40;39.00;;;;;;3052867;19;5415;-69
2024/01/31 00:36:52;;;;;;;;;;;21.30;38.90;;;;;;3053034;19;5386;-70
2024/01/31 00:37:54;;;;;;;;;;;22.60;39.60;;;;;;3030903;19;5547;-70
2024/01/31 00:38:55;;;;;;;;;;;21.10;38.90;;;;;;3052857;19;5331;-72
2024/01/31 00:39:56;;;;;;;;;;;21.50;39.10;;;;;;3031453;19;5269;-70
2024/01/31 00:40:56;;;;;;;;;;;21.30;39.10;;;;;;3052414;19;4632;-70
2024/01/31 00:41:58;;;;;;;;;;;21.30;39.00;;;;;;3053175;19;5343;-70
2024/01/31 00:42:58;;;;;;;;;;;21.30;39.00;;;;;;3031205;19;5560;-71
2024/01/31 00:43:59;;;;;;;;;;;21.30;39.00;;;;;;3052836;19;5277;-70
2024/01/31 00:44:59;;;;;;;;;;;21.30;39.10;;;;;;3053123;19;5353;-68
2024/01/31 00:46:04;;;;;;;;;;;21.30;39.00;;;;;;3031056;19;5193;-70
2024/01/31 00:47:04;;;;;;;;;;;21.30;39.00;;;;;;3052814;19;5031;-70
2024/01/31 00:48:05;;;;;;;;;;;21.30;39.10;;;;;;3031691;19;4687;-68
2024/01/31 00:49:06;;;;;;;;;;;21.20;39.00;;;;;;3052511;19;4678;-69
2024/01/31 00:50:07;;;;;;;;;;;21.30;39.10;;;;;;3053048;19;4748;-70
2024/01/31 00:51:10;;;;;;;;;;;21.20;39.40;;;;;;3030619;19;4744;-72
2024/01/31 00:52:10;;;;;;;;;;;21.30;39.10;;;;;;3053463;19;833;-69
2024/01/31 00:53:11;;;;;;;;;;;21.30;39.00;;;;;;3030265;19;5402;-69
2024/01/31 00:54:12;;;;;;;;;;;21.20;39.00;;;;;;3052462;19;5354;-69
2024/01/31 00:55:13;;;;;;;;;;;21.20;39.10;;;;;;3051666;19;5294;-70
2024/01/31 00:56:14;;;;;;;;;;;21.20;39.80;;;;;;3030222;19;5256;-69
2024/01/31 00:57:14;;;;;;;;;;;21.00;39.00;;;;;;3051191;19;4941;-69
2024/01/31 00:58:15;;;;;;;;;;;21.60;39.40;;;;;;3052041;19;5224;-69
2024/01/31 00:59:15;;;;;;;;;;;21.20;39.00;;;;;;3031137;19;5559;-69
2024/01/31 01:00:17;;;;;;;;;;;21.50;39.20;;;;;;3052389;19;592;-70
2024/01/31 01:01:18;;;;;;;;;;;21.20;39.10;;;;;;3029325;19;5918;-69
2024/01/31 01:02:19;;;;;;;;;;;21.10;39.10;;;;;;3051987;19;5408;-69
2024/01/31 01:03:20;;;;;;;;;;;21.30;39.20;;;;;;3051857;19;4691;-69
2024/01/31 01:04:20;;;;;;;;;;;21.10;39.10;;;;;;3030637;19;5236;-69
2024/01/31 01:05:21;;;;;;;;;;;21.60;39.30;;;;;;3051760;19;5398;-69
2024/01/31 01:06:22;;;;;;;;;;;21.50;39.50;;;;;;3051948;19;5275;-69
2024/01/31 01:07:22;;;;;;;;;;;22.00;39.70;;;;;;3029781;19;4625;-70
2024/01/31 01:08:23;;;;;;;;;;;21.10;39.20;;;;;;3051949;19;5556;-68
2024/01/31 01:09:23;;;;;;;;;;;21.10;39.10;;;;;;3030594;19;5447;-69
2024/01/31 01:10:24;;;;;;;;;;;21.70;39.60;;;;;;3051994;19;5597;-70
2024/01/31 01:11:25;;;;;;;;;;;21.10;39.20;;;;;;3051718;19;5241;-71
2024/01/31 01:12:26;;;;;;;;;;;20.80;39.00;;;;;;3029886;19;6675;-70
2024/01/31 01:13:26;;;;;;;;;;;21.10;39.20;;;;;;3052112;19;5232;-69
2024/01/31 01:14:27;;;;;;;;;;;21.10;39.20;;;;;;3029864;19;5526;-69
2024/01/31 01:15:28;;;;;;;;;;;21.10;39.10;;;;;;3051607;19;5270;-72
2024/01/31 01:16:29;;;;;;;;;;;21.10;39.20;;;;;;3052672;19;5343;-71
2024/01/31 01:17:30;;;;;;;;;;;21.10;39.20;;;;;;3031189;19;5223;-72
2024/01/31 01:18:31;;;;;;;;;;;21.10;39.30;;;;;;3052595;19;5259;-70
2024/01/31 01:19:31;;;;;;;;;;;21.50;39.50;;;;;;3051993;19;4664;-72
2024/01/31 01:20:32;;;;;;;;;;;21.10;39.30;;;;;;3030953;19;4625;-70
2024/01/31 01:21:33;;;;;;;;;;;21.10;39.30;;;;;;3052012;19;5439;-70
2024/01/31 01:22:34;;;;;;;;;;;21.00;39.30;;;;;;3030228;19;5281;-71
2024/01/31 01:23:35;;;;;;;;;;;21.10;39.30;;;;;;3052056;19;5290;-72
2024/01/31 01:24:35;;;;;;;;;;;21.10;39.20;;;;;;3052711;19;5097;-72
2024/01/31 01:25:36;;;;;;;;;;;21.00;39.30;;;;;;3030796;19;4727;-71
2024/01/31 01:26:40;;;;;;;;;;;21.00;39.20;;;;;;3052126;19;5573;-72
2024/01/31 01:27:42;;;;;;;;;;;21.00;39.20;;;;;;3050438;19;4689;-71
2024/01/31 01:28:43;;;;;;;;;;;21.30;39.40;;;;;;3030042;19;5080;-74
2024/01/31 01:29:44;;;;;;;;;;;21.00;39.20;;;;;;3051480;19;5432;-72
2024/01/31 01:30:44;;;;;;;;;;;21.00;39.40;;;;;;3030458;19;5651;-71
2024/01/31 01:31:45;;;;;;;;;;;20.90;39.30;;;;;;3051740;19;4840;-72
2024/01/31 01:32:46;;;;;;;;;;;20.90;39.30;;;;;;3051735;19;5237;-70
2024/01/31 01:33:46;;;;;;;;;;;21.60;39.70;;;;;;3028682;19;5148;-74
2024/01/31 01:34:47;;;;;;;;;;;20.90;39.10;;;;;;3051909;19;5248;-85
2024/01/31 01:35:47;;;;;;;;;;;21.50;39.70;;;;;;3032200;19;5364;-86
2024/01/31 01:36:48;;;;;;;;;;;20.90;39.20;;;;;;3053025;19;5217;-73
2024/01/31 01:37:49;;;;;;;;;;;21.10;39.40;;;;;;3053155;19;5316;-73
2024/01/31 01:38:49;;;;;;;;;;;21.00;39.30;;;;;;3030394;19;5433;-73
2024/01/31 01:39:50;;;;;;;;;;;20.90;39.30;;;;;;3052258;19;4669;-75
2024/01/31 01:40:52;;;;;;;;;;;21.00;39.30;;;;;;3052830;19;5337;-74
2024/01/31 01:41:52;;;;;;;;;;;20.90;39.20;;;;;;3030585;19;6046;-74
2024/01/31 01:42:53;;;;;;;;;;;20.90;39.30;;;;;;3052202;19;5650;-74
2024/01/31 01:43:54;;;;;;;;;;;20.90;39.30;;;;;;3031081;19;6230;-73
2024/01/31 01:44:54;;;;;;;;;;;21.60;39.70;;;;;;3051912;19;5317;-73
2024/01/31 01:46:15;;;;;;;;;;;21.10;39.40;;;;;;3052298;19;5307;-74
2024/01/31 01:47:15;;;;;;;;;;;20.90;39.30;;;;;;3028862;19;11958;-74
2024/01/31 01:48:17;;;;;;;;;;;20.80;39.30;;;;;;3052531;19;5696;-73
2024/01/31 01:49:18;;;;;;;;;;;20.80;39.40;;;;;;3029772;19;4817;-74
2024/01/31 01:50:19;;;;;;;;;;;20.90;39.40;;;;;;3052262;19;5697;-74
2024/01/31 01:51:21;;;;;;;;;;;20.80;39.40;;;;;;3051794;19;5286;-75
2024/01/31 01:52:21;;;;;;;;;;;21.50;39.70;;;;;;3027012;19;5163;-75
2024/01/31 01:53:22;;;;;;;;;;;21.00;39.30;;;;;;3050709;19;5295;-74
2024/01/31 01:54:23;;;;;;;;;;;20.80;39.30;;;;;;3052754;19;5281;-74
2024/01/31 01:55:23;;;;;;;;;;;21.50;39.80;;;;;;3031362;19;4820;-77
2024/01/31 01:56:24;;;;;;;;;;;20.80;39.40;;;;;;3052583;19;5335;-76
2024/01/31 01:57:25;;;;;;;;;;;20.80;39.20;;;;;;3030322;19;4980;-75
2024/01/31 01:58:25;;;;;;;;;;;20.80;39.30;;;;;;3052248;19;5423;-76
2024/01/31 01:59:26;;;;;;;;;;;20.80;39.30;;;;;;3051502;19;5835;-75
2024/01/31 02:00:27;;;;;;;;;;;20.80;39.40;;;;;;3030779;19;5313;-76
2024/01/31 02:01:28;;;;;;;;;;;20.70;39.40;;;;;;3051666;19;4689;-75
2024/01/31 02:02:28;;;;;;;;;;;20.70;39.50;;;;;;3030450;19;5471;-73
2024/01/31 02:03:29;;;;;;;;;;;20.70;39.40;;;;;;3052873;19;5417;-76
2024/01/31 02:04:30;;;;;;;;;;;20.80;39.40;;;;;;3053116;19;4930;-74
2024/01/31 02:05:31;;;;;;;;;;;20.70;39.20;;;;;;3031057;19;5599;-74
2024/01/31 02:06:32;;;;;;;;;;;20.70;39.40;;;;;;3053126;19;4741;-76
2024/01/31 02:07:33;;;;;;;;;;;20.80;39.60;;;;;;3053382;19;4764;-74
2024/01/31 02:08:33;;;;;;;;;;;20.70;39.40;;;;;;3031380;19;5156;-74
2024/01/31 02:09:34;;;;;;;;;;;20.70;39.40;;;;;;3053240;19;4683;-75
2024/01/31 02:10:34;;;;;;;;;;;20.70;39.40;;;;;;3031993;19;4585;-76
2024/01/31 02:11:36;;;;;;;;;;;20.70;39.40;;;;;;3052573;19;4883;-75
2024/01/31 02:12:37;;;;;;;;;;;20.70;39.40;;;;;;3053644;19;5790;-76
2024/01/31 02:13:37;;;;;;;;;;;20.70;39.30;;;;;;3032113;19;4776;-75
2024/01/31 02:14:39;;;;;;;;;;;20.70;39.40;;;;;;3057705;19;5414;-75
2024/01/31 02:15:53;;;;;;;;;;;20.70;39.50;;;;;;3068501;19;5478;-76
2024/01/31 02:16:57;;;;;;;;;;;20.70;39.40;;;;;;3045827;19;21375;-76
2024/01/31 02:17:57;;;;;;;;;;;20.70;39.40;;;;;;3067113;19;5271;-76
2024/01/31 02:18:58;;;;;;;;;;;20.60;39.40;;;;;;3047031;19;5547;-75
2024/01/31 02:19:59;;;;;;;;;;;20.70;39.50;;;;;;3068233;19;5297;-75
2024/01/31 02:21:00;;;;;;;;;;;20.70;39.40;;;;;;3067721;19;5670;-76
2024/01/31 02:22:01;;;;;;;;;;;20.70;39.40;;;;;;3046174;19;5282;-77
2024/01/31 02:23:02;;;;;;;;;;;20.60;39.40;;;;;;3067697;19;5082;-75
2024/01/31 02:24:03;;;;;;;;;;;20.60;39.50;;;;;;3046878;19;5175;-75
2024/01/31 02:25:12;;;;;;;;;;;20.60;39.60;;;;;;3067555;19;5189;-75
2024/01/31 02:26:13;;;;;;;;;;;20.60;39.50;;;;;;3067942;19;4638;-75
2024/01/31 02:27:13;;;;;;;;;;;20.60;39.40;;;;;;3044418;19;5660;-75
2024/01/31 02:28:14;;;;;;;;;;;20.60;39.50;;;;;;3067501;19;5379;-75
2024/01/31 02:29:15;;;;;;;;;;;20.60;39.50;;;;;;3044351;19;5035;-74
2024/01/31 02:30:16;;;;;;;;;;;20.60;39.60;;;;;;3066828;19;5401;-74
2024/01/31 02:31:16;;;;;;;;;;;20.60;40.20;;;;;;3066191;19;4791;-75
2024/01/31 02:32:18;;;;;;;;;;;20.60;39.50;;;;;;3045069;19;5276;-75
2024/01/31 02:33:20;;;;;;;;;;;20.30;39.40;;;;;;3066898;19;5156;-75
2024/01/31 02:34:21;;;;;;;;;;;20.50;39.60;;;;;;3067108;19;5438;-75
2024/01/31 02:35:22;;;;;;;;;;;20.60;39.80;;;;;;3043009;19;5312;-76
2024/01/31 02:36:22;;;;;;;;;;;20.50;39.40;;;;;;3056565;19;5760;-74
2024/01/31 02:37:23;;;;;;;;;;;20.50;39.50;;;;;;3035075;19;5191;-74
2024/01/31 02:38:24;;;;;;;;;;;20.50;39.50;;;;;;3056338;19;5215;-74
2024/01/31 02:39:24;;;;;;;;;;;20.50;39.60;;;;;;3057078;19;5419;-75
2024/01/31 02:40:25;;;;;;;;;;;20.50;39.60;;;;;;3034686;19;5160;-74
2024/01/31 02:41:26;;;;;;;;;;;20.50;39.60;;;;;;3055412;19;5627;-74
2024/01/31 02:42:26;;;;;;;;;;;20.50;39.60;;;;;;3033096;19;4866;-74
2024/01/31 02:43:27;;;;;;;;;;;21.50;40.10;;;;;;3054241;19;4827;-77
2024/01/31 02:44:28;;;;;;;;;;;20.50;39.70;;;;;;3054448;19;5342;-75
2024/01/31 02:45:29;;;;;;;;;;;20.50;39.70;;;;;;3032522;19;5297;-75
2024/01/31 02:46:29;;;;;;;;;;;20.50;39.50;;;;;;3054125;19;5793;-75
2024/01/31 02:47:33;;;;;;;;;;;20.50;39.70;;;;;;3054247;19;5317;-75
2024/01/31 02:48:35;;;;;;;;;;;20.50;39.60;;;;;;3032699;19;6175;-74
2024/01/31 02:49:36;;;;;;;;;;;20.50;39.70;;;;;;3053881;19;5439;-75
2024/01/31 02:50:38;;;;;;;;;;;20.50;39.50;;;;;;3032897;19;5817;-74
2024/01/31 02:51:40;;;;;;;;;;;20.50;39.70;;;;;;3053684;19;5414;-76
2024/01/31 02:52:41;;;;;;;;;;;20.40;39.70;;;;;;3053743;19;5675;-74
2024/01/31 02:53:42;;;;;;;;;;;20.50;39.50;;;;;;3032703;19;5346;-74
2024/01/31 02:54:42;;;;;;;;;;;20.40;39.50;;;;;;3053456;19;5768;-74
2024/01/31 02:55:43;;;;;;;;;;;20.40;39.60;;;;;;3053151;19;5275;-75
2024/01/31 02:56:44;;;;;;;;;;;20.40;39.50;;;;;;3030242;19;23451;-77
2024/01/31 02:57:44;;;;;;;;;;;20.50;39.70;;;;;;3053143;19;5389;-74
2024/01/31 02:58:45;;;;;;;;;;;20.40;39.70;;;;;;3034185;19;5428;-74
2024/01/31 02:59:46;;;;;;;;;;;20.90;40.00;;;;;;3055444;19;5108;-75
2024/01/31 03:00:48;;;;;;;;;;;21.10;40.20;;;;;;3054516;19;5576;-77
2024/01/31 03:01:49;;;;;;;;;;;20.40;39.80;;;;;;3032398;19;4766;-76
2024/01/31 03:02:50;;;;;;;;;;;20.40;39.80;;;;;;3054854;19;5836;-75
2024/01/31 03:03:50;;;;;;;;;;;20.40;39.70;;;;;;3032986;19;5259;-76
2024/01/31 03:04:51;;;;;;;;;;;19.60;39.30;;;;;;3054813;19;5714;-74
2024/01/31 03:05:52;;;;;;;;;;;20.50;39.90;;;;;;3052999;19;4559;-69
2024/01/31 03:06:52;;;;;;;;;;;20.40;39.80;;;;;;3032492;19;5919;-68
2024/01/31 03:07:53;;;;;;;;;;;20.20;39.70;;;;;;3053307;19;5361;-67
2024/01/31 03:08:53;;;;;;;;;;;20.40;39.80;;;;;;3052156;19;6462;-68
2024/01/31 03:09:54;;;;;;;;;;;20.30;39.70;;;;;;3031525;19;5078;-68
2024/01/31 03:10:55;;;;;;;;;;;21.20;40.20;;;;;;3053310;19;5298;-67
2024/01/31 03:11:55;;;;;;;;;;;20.80;40.10;;;;;;3032970;19;6417;-69
2024/01/31 03:12:56;;;;;;;;;;;20.30;39.70;;;;;;3053777;19;6030;-68
2024/01/31 03:13:57;;;;;;;;;;;20.30;39.70;;;;;;3053574;19;5377;-67
2024/01/31 03:14:57;;;;;;;;;;;21.30;40.30;;;;;;3031746;19;5437;-67
2024/01/31 03:15:58;;;;;;;;;;;20.40;39.90;;;;;;3053089;19;4725;-69
2024/01/31 03:16:59;;;;;;;;;;;20.40;39.90;;;;;;3053260;19;5100;-68
2024/01/31 03:17:59;;;;;;;;;;;21.40;40.40;;;;;;3031654;19;5300;-67
2024/01/31 03:19:00;;;;;;;;;;;20.30;39.90;;;;;;3053622;19;5364;-68
2024/01/31 03:20:05;;;;;;;;;;;20.30;39.90;;;;;;3032736;19;5807;-67
2024/01/31 03:21:06;;;;;;;;;;;20.30;39.80;;;;;;3054543;19;5369;-68
2024/01/31 03:22:06;;;;;;;;;;;20.30;39.90;;;;;;3054207;19;10979;-68
2024/01/31 03:23:07;;;;;;;;;;;21.10;40.40;;;;;;3031816;19;5244;-67
2024/01/31 03:24:10;;;;;;;;;;;20.30;40.00;;;;;;3052680;19;5359;-68
2024/01/31 03:25:10;;;;;;;;;;;20.30;39.80;;;;;;3032312;19;5386;-67
2024/01/31 03:26:11;;;;;;;;;;;20.30;40.00;;;;;;3053324;19;4852;-69
2024/01/31 03:27:13;;;;;;;;;;;20.70;40.20;;;;;;3054081;19;4752;-68
2024/01/31 03:28:14;;;;;;;;;;;20.30;40.00;;;;;;3032208;19;5188;-68
2024/01/31 03:29:15;;;;;;;;;;;20.30;40.00;;;;;;3054257;19;5384;-67
2024/01/31 03:30:15;;;;;;;;;;;20.30;39.90;;;;;;3054779;19;818;-67
2024/01/31 03:31:16;;;;;;;;;;;20.00;39.80;;;;;;3031136;19;5852;-68
2024/01/31 03:32:16;;;;;;;;;;;20.30;40.00;;;;;;3053231;19;5361;-68
2024/01/31 03:33:17;;;;;;;;;;;20.30;40.00;;;;;;3033039;19;4757;-68
2024/01/31 03:34:18;;;;;;;;;;;20.30;40.00;;;;;;3051999;19;21917;-69
2024/01/31 03:35:18;;;;;;;;;;;19.80;39.70;;;;;;3053650;19;5263;-76
2024/01/31 03:36:19;;;;;;;;;;;20.30;39.90;;;;;;3032563;19;5655;-77
2024/01/31 03:37:20;;;;;;;;;;;20.40;40.00;;;;;;3053873;19;5248;-76
2024/01/31 03:38:20;;;;;;;;;;;20.20;39.80;;;;;;3054937;19;4752;-76
2024/01/31 03:39:21;;;;;;;;;;;20.20;39.70;;;;;;3032307;19;4802;-74
2024/01/31 03:40:22;;;;;;;;;;;20.70;39.70;;;;;;3054335;19;5208;-75
2024/01/31 03:41:23;;;;;;;;;;;20.20;39.20;;;;;;3033132;19;5444;-75
2024/01/31 03:42:23;;;;;;;;;;;20.30;39.10;;;;;;3055057;19;5202;-76
2024/01/31 03:43:24;;;;;;;;;;;20.30;39.10;;;;;;3053766;19;5459;-75
2024/01/31 03:44:25;;;;;;;;;;;20.30;39.30;;;;;;3031884;19;5446;-76
2024/01/31 03:45:27;;;;;;;;;;;19.70;39.00;;;;;;3054642;19;6098;-76
2024/01/31 03:46:28;;;;;;;;;;;20.30;39.40;;;;;;3030812;19;5303;-75
2024/01/31 03:47:28;;;;;;;;;;;20.30;39.50;;;;;;3053924;19;4762;-75
2024/01/31 03:48:29;;;;;;;;;;;20.70;39.60;;;;;;3054389;19;4643;-76
2024/01/31 03:49:30;;;;;;;;;;;20.40;39.20;;;;;;3032584;19;4726;-75
2024/01/31 03:50:31;;;;;;;;;;;20.40;39.20;;;;;;3054518;19;5336;-76
2024/01/31 03:51:32;;;;;;;;;;;20.50;39.20;;;;;;3054333;19;5712;-77
2024/01/31 03:52:35;;;;;;;;;;;20.50;39.30;;;;;;3031931;19;4805;-74
2024/01/31 03:53:36;;;;;;;;;;;20.90;39.50;;;;;;3054972;19;5288;-76
2024/01/31 03:54:36;;;;;;;;;;;20.50;39.20;;;;;;3032610;19;5184;-77
2024/01/31 03:55:37;;;;;;;;;;;20.50;39.20;;;;;;3054043;19;5576;-75
2024/01/31 03:56:37;;;;;;;;;;;21.30;39.70;;;;;;3054800;19;5400;-75
2024/01/31 03:57:38;;;;;;;;;;;20.50;39.00;;;;;;3032892;19;5058;-74
2024/01/31 03:58:39;;;;;;;;;;;20.50;39.00;;;;;;3053729;19;5316;-76
2024/01/31 03:59:39;;;;;;;;;;;20.60;39.00;;;;;;3054244;19;4786;-76
2024/01/31 04:00:40;;;;;;;;;;;20.60;38.90;;;;;;3032035;19;5491;-76
2024/01/31 04:01:40;;;;;;;;;;;21.60;39.50;;;;;;3054603;19;5424;-75
2024/01/31 04:02:43;;;;;;;;;;;20.70;39.40;;;;;;3032941;19;5376;-76
2024/01/31 04:03:44;;;;;;;;;;;20.70;38.70;;;;;;3053576;19;5305;-76
2024/01/31 04:04:45;;;;;;;;;;;20.70;38.70;;;;;;3053528;19;5841;-76
2024/01/31 04:05:45;;;;;;;;;;;20.80;38.70;;;;;;3031340;19;5124;-77
2024/01/31 04:06:46;;;;;;;;;;;20.80;38.70;;;;;;3054608;19;5176;-76
2024/01/31 04:07:47;;;;;;;;;;;20.80;38.80;;;;;;3032392;19;4810;-74
2024/01/31 04:08:47;;;;;;;;;;;20.80;38.60;;;;;;3053012;19;5248;-75
2024/01/31 04:09:48;;;;;;;;;;;20.80;38.60;;;;;;3051073;19;5293;-76
2024/01/31 04:10:49;;;;;;;;;;;20.90;38.70;;;;;;3032355;19;4827;-75
2024/01/31 04:11:49;;;;;;;;;;;21.50;38.90;;;;;;3054110;19;4568;-77
2024/01/31 04:12:50;;;;;;;;;;;20.80;38.50;;;;;;3054438;19;4544;-76
2024/01/31 04:13:50;;;;;;;;;;;20.80;38.50;;;;;;3031785;19;5420;-75
2024/01/31 04:14:51;;;;;;;;;;;20.90;38.50;;;;;;3054176;19;4757;-76
2024/01/31 04:15:52;;;;;;;;;;;21.30;38.70;;;;;;3029931;19;5059;-68
2024/01/31 04:16:53;;;;;;;;;;;20.90;38.30;;;;;;3053272;19;5297;-67
2024/01/31 04:17:53;;;;;;;;;;;21.00;38.30;;;;;;3052064;19;5314;-69
2024/01/31 04:18:54;;;;;;;;;;;21.30;38.40;;;;;;3031323;19;5713;-67
2024/01/31 04:19:54;;;;;;;;;;;21.00;38.30;;;;;;3052793;19;5410;-68
2024/01/31 04:20:55;;;;;;;;;;;21.10;38.20;;;;;;3051981;19;5358;-67
2024/01/31 04:21:56;;;;;;;;;;;21.00;38.10;;;;;;3030678;19;5452;-68
2024/01/31 04:22:56;;;;;;;;;;;21.10;38.20;;;;;;3051796;19;4816;-68
2024/01/31 04:23:57;;;;;;;;;;;21.00;38.10;;;;;;3029703;19;5422;-68
2024/01/31 04:24:57;;;;;;;;;;;20.90;38.10;;;;;;3053039;19;5635;-68
2024/01/31 04:25:58;;;;;;;;;;;20.90;38.20;;;;;;3051556;19;6377;-68
2024/01/31 04:26:59;;;;;;;;;;;21.10;38.30;;;;;;3030744;19;4809;-67
2024/01/31 04:27:59;;;;;;;;;;;21.00;38.90;;;;;;3052012;19;5769;-69
2024/01/31 04:29:00;;;;;;;;;;;20.80;38.20;;;;;;3053408;19;5256;-67
2024/01/31 04:30:01;;;;;;;;;;;21.30;38.40;;;;;;3029742;19;4739;-67
2024/01/31 04:31:01;;;;;;;;;;;21.10;38.30;;;;;;3052509;19;5351;-67
2024/01/31 04:32:02;;;;;;;;;;;21.00;38.30;;;;;;3030985;19;5231;-68
2024/01/31 04:33:02;;;;;;;;;;;21.00;38.40;;;;;;3052123;19;5385;-67
2024/01/31 04:34:04;;;;;;;;;;;21.00;38.30;;;;;;3052145;19;4942;-67
2024/01/31 04:35:09;;;;;;;;;;;21.00;38.30;;;;;;3030579;19;5709;-66
2024/01/31 04:36:09;;;;;;;;;;;21.00;38.40;;;;;;3051296;19;6419;-67
2024/01/31 04:37:10;;;;;;;;;;;21.00;38.30;;;;;;3030296;19;5147;-68
2024/01/31 04:38:11;;;;;;;;;;;20.90;38.30;;;;;;3051561;19;5557;-67
2024/01/31 04:39:11;;;;;;;;;;;21.00;38.30;;;;;;3052295;19;5326;-68
2024/01/31 04:40:12;;;;;;;;;;;21.00;38.30;;;;;;3030516;19;5134;-67
2024/01/31 04:41:12;;;;;;;;;;;21.00;38.30;;;;;;3051766;19;5546;-68
2024/01/31 04:42:13;;;;;;;;;;;21.00;38.50;;;;;;3051510;19;5405;-68
2024/01/31 04:43:16;;;;;;;;;;;21.00;38.40;;;;;;3030914;19;5200;-67
2024/01/31 04:44:16;;;;;;;;;;;20.90;38.30;;;;;;3052033;19;5270;-66
2024/01/31 04:45:17;;;;;;;;;;;21.00;38.50;;;;;;3031377;19;4863;-86
2024/01/31 04:46:18;;;;;;;;;;;21.00;38.30;;;;;;3055281;19;5267;-87
2024/01/31 04:47:19;;;;;;;;;;;21.00;38.30;;;;;;3054720;19;5359;-87
2024/01/31 04:48:20;;;;;;;;;;;21.10;38.40;;;;;;3034806;19;5607;-88
2024/01/31 04:49:20;;;;;;;;;;;21.00;38.60;;;;;;3055159;19;5366;-87
2024/01/31 04:50:21;;;;;;;;;;;21.00;39.20;;;;;;3055845;19;4635;-85
2024/01/31 04:51:21;;;;;;;;;;;21.00;38.20;;;;;;3033504;19;4579;-86
2024/01/31 04:52:22;;;;;;;;;;;21.00;38.20;;;;;;3063949;19;4701;-85
2024/01/31 04:53:23;;;;;;;;;;;21.00;38.30;;;;;;3047204;19;5190;-86
2024/01/31 04:54:23;;;;;;;;;;;21.00;38.30;;;;;;3069616;19;5451;-87
2024/01/31 04:55:24;;;;;;;;;;;20.80;38.40;;;;;;3069228;19;5321;-86
2024/01/31 04:56:26;;;;;;;;;;;21.00;38.50;;;;;;3046689;19;5312;-85
2024/01/31 04:57:27;;;;;;;;;;;20.90;38.50;;;;;;3068638;19;5167;-87
2024/01/31 04:58:27;;;;;;;;;;;21.10;38.40;;;;;;3046811;19;5497;-86
2024/01/31 04:59:28;;;;;;;;;;;21.10;39.10;;;;;;3068505;19;5422;-85
2024/01/31 05:00:29;;;;;;;;;;;21.20;38.40;;;;;;3068351;19;5841;-86
2024/01/31 05:01:29;;;;;;;;;;;21.30;38.70;;;;;;3047451;19;5163;-85
2024/01/31 05:02:30;;;;;;;;;;;21.40;38.40;;;;;;3068370;19;5322;-86
2024/01/31 05:03:31;;;;;;;;;;;21.50;38.20;;;;;;3069170;19;5115;-86
2024/01/31 05:04:31;;;;;;;;;;;21.60;38.20;;;;;;3047176;19;5262;-85
2024/01/31 05:05:32;;;;;;;;;;;21.80;38.10;;;;;;3068813;19;5654;-85
2024/01/31 05:06:32;;;;;;;;;;;21.70;38.00;;;;;;3047289;19;4762;-85
2024/01/31 05:07:33;;;;;;;;;;;21.70;38.10;;;;;;3067560;19;5470;-86
2024/01/31 05:08:34;;;;;;;;;;;21.70;37.90;;;;;;3068637;19;5489;-87
2024/01/31 05:09:34;;;;;;;;;;;22.70;38.50;;;;;;3046826;19;4973;-87
2024/01/31 05:10:36;;;;;;;;;;;21.20;37.60;;;;;;3067547;19;5494;-86
2024/01/31 05:11:37;;;;;;;;;;;22.40;38.40;;;;;;3068176;19;4867;-86
2024/01/31 05:12:37;;;;;;;;;;;21.80;38.00;;;;;;3045924;19;5259;-87
2024/01/31 05:13:38;;;;;;;;;;;21.70;38.00;;;;;;3058808;19;5216;-86
2024/01/31 05:14:39;;;;;;;;;;;21.70;38.00;;;;;;3036754;19;5378;-88
2024/01/31 05:15:40;;;;;;;;;;;21.70;38.10;;;;;;3036200;19;4779;-88
2024/01/31 05:16:42;;;;;;;;;;;21.70;38.10;;;;;;3057530;19;5408;-87
2024/01/31 05:17:43;;;;;;;;;;;21.60;38.20;;;;;;3034550;19;5312;-87
2024/01/31 05:18:43;;;;;;;;;;;21.60;38.10;;;;;;3057071;19;5381;-86
2024/01/31 05:19:44;;;;;;;;;;;21.60;38.30;;;;;;3053996;19;5353;-84
2024/01/31 05:20:44;;;;;;;;;;;21.60;38.10;;;;;;3044775;19;4814;-87
2024/01/31 05:21:46;;;;;;;;;;;21.50;37.60;;;;;;3056818;19;5316;-88
2024/01/31 05:22:46;;;;;;;;;;;21.70;37.90;;;;;;3034498;19;4773;-86
2024/01/31 05:23:47;;;;;;;;;;;21.90;38.00;;;;;;3055258;19;5270;-88
2024/01/31 05:24:47;;;;;;;;;;;21.50;37.80;;;;;;3056243;19;4721;-88
2024/01/31 05:25:48;;;;;;;;;;;21.50;38.00;;;;;;3030697;19;5125;-67
2024/01/31 05:26:49;;;;;;;;;;;21.60;38.20;;;;;;3052074;19;5369;-68
2024/01/31 05:27:50;;;;;;;;;;;21.60;38.20;;;;;;3030283;19;5749;-68
2024/01/31 05:28:51;;;;;;;;;;;21.70;38.30;;;;;;3052650;19;5351;-67
2024/01/31 05:29:51;;;;;;;;;;;21.70;37.90;;;;;;3052234;19;5208;-67
2024/01/31 05:30:52;;;;;;;;;;;21.80;38.10;;;;;;3030826;19;5644;-67
2024/01/31 05:31:52;;;;;;;;;;;21.80;38.10;;;;;;3052540;19;4886;-69
2024/01/31 05:32:53;;;;;;;;;;;21.80;38.00;;;;;;3053475;19;5014;-67
2024/01/31 05:33:54;;;;;;;;;;;21.90;38.00;;;;;;3030590;19;5004;-68
2024/01/31 05:34:55;;;;;;;;;;;21.80;37.90;;;;;;3053104;19;5437;-68
2024/01/31 05:36:00;;;;;;;;;;;21.80;38.00;;;;;;3031417;19;5317;-68
2024/01/31 05:37:01;;;;;;;;;;;22.00;38.70;;;;;;3051874;19;4763;-68
2024/01/31 05:38:03;;;;;;;;;;;21.90;37.90;;;;;;3052815;19;4778;-67
2024/01/31 05:39:03;;;;;;;;;;;21.70;37.60;;;;;;3031334;19;5344;-68
2024/01/31 05:40:04;;;;;;;;;;;21.80;38.00;;;;;;3052654;19;5397;-68
2024/01/31 05:41:05;;;;;;;;;;;21.70;37.90;;;;;;3036519;19;5347;-69
2024/01/31 05:42:05;;;;;;;;;;;21.70;38.10;;;;;;3052269;19;5308;-67
2024/01/31 05:43:06;;;;;;;;;;;21.70;38.00;;;;;;3052460;19;4745;-67
2024/01/31 05:44:07;;;;;;;;;;;21.70;38.10;;;;;;3031686;19;5155;-68
2024/01/31 05:45:08;;;;;;;;;;;21.70;38.30;;;;;;3052239;19;5593;-68
2024/01/31 05:46:08;;;;;;;;;;;21.70;38.20;;;;;;3053237;19;1031;-68
2024/01/31 05:47:09;;;;;;;;;;;21.60;38.20;;;;;;3029295;19;20816;-68
2024/01/31 05:48:09;;;;;;;;;;;21.60;38.20;;;;;;3050418;19;5488;-68
2024/01/31 05:49:10;;;;;;;;;;;21.50;38.10;;;;;;3031124;19;4744;-68
2024/01/31 05:50:11;;;;;;;;;;;21.60;38.30;;;;;;3050924;19;4674;-69
2024/01/31 05:51:11;;;;;;;;;;;21.50;37.80;;;;;;3051238;19;5432;-69
2024/01/31 05:52:12;;;;;;;;;;;21.30;37.70;;;;;;3030321;19;5157;-67
2024/01/31 05:53:12;;;;;;;;;;;21.50;37.70;;;;;;3051602;19;1217;-68
2024/01/31 05:54:13;;;;;;;;;;;21.50;37.70;;;;;;3051648;19;21076;-68
2024/01/31 05:55:15;;;;;;;;;;;21.40;37.70;;;;;;3031246;19;4173;-77
2024/01/31 05:56:16;;;;;;;;;;;20.60;37.30;;;;;;3051799;19;5869;-78
2024/01/31 05:57:17;;;;;;;;;;;21.40;37.80;;;;;;3031852;19;4270;-77
2024/01/31 05:58:18;;;;;;;;;;;21.40;37.80;;;;;;3052512;19;5122;-75
2024/01/31 05:59:18;;;;;;;;;;;21.80;38.10;;;;;;3053471;19;5610;-77
2024/01/31 06:00:19;;;;;;;;;;;21.50;37.80;;;;;;3031236;19;4510;-75